Time;durP1;ratioP1;P1;durP2;ratioP2;P2;SDS_P1;SDS_P2;PMS_P1;PMS_P2;Temp;Humidity;BMP_temperature;BMP_pressure;BME280_temperature;BME280_humidity;BME280_pressure;Samples;Min_cycle;Max_cycle;Signal;HPM_P1;HPM_P2
2021/09/30 00:00:34;;;;;;;21.30;14.10;;;;;;;13.58;96.98;97234.39;115590;1198;30939;-83
2021/09/30 00:03:13;;;;;;;18.20;14.60;;;;;;;13.56;96.93;97231.63;115611;1198;29540;-83
2021/09/30 00:05:46;;;;;;;17.60;13.80;;;;;;;13.53;96.92;97233.96;115629;1192;29861;-84
2021/09/30 00:08:19;;;;;;;18.70;13.80;;;;;;;13.56;97.19;97235.27;115659;1198;29237;-83
2021/09/30 00:10:58;;;;;;;20.20;14.50;;;;;;;13.59;97.25;97234.21;115612;1198;27682;-83
2021/09/30 00:13:46;;;;;;;19.20;14.60;;;;;;;13.61;97.30;97239.26;115622;1198;29248;-82
2021/09/30 00:33:31;;;;;;;18.70;12.30;;;;;;;13.71;97.47;97236.92;115669;1198;28854;-84
2021/09/30 00:36:12;;;;;;;17.30;13.20;;;;;;;13.70;97.43;97235.87;115643;1198;39150;-83
2021/09/30 00:41:42;;;;;;;18.60;12.90;;;;;;;13.71;97.52;97238.69;115648;1198;26692;-83
2021/09/30 00:47:07;;;;;;;18.90;13.40;;;;;;;13.73;97.37;97234.30;115625;1198;35847;-83
2021/09/30 00:49:49;;;;;;;22.00;14.70;;;;;;;13.73;97.42;97233.11;115671;1198;24430;-83
2021/09/30 00:52:31;;;;;;;17.70;13.80;;;;;;;13.74;97.37;97232.52;115634;1198;28632;-83
2021/09/30 01:18:45;;;;;;;16.40;13.00;;;;;;;13.65;97.95;97236.98;115617;1198;29092;-83
2021/09/30 01:46:52;;;;;;;17.40;12.20;;;;;;;13.61;98.19;97258.70;115422;1199;29767;-83
2021/09/30 02:21:56;;;;;;;19.60;13.80;;;;;;;13.52;98.98;97286.83;115173;1201;32700;-84
2021/09/30 02:27:26;;;;;;;14.70;10.80;;;;;;;13.50;99.11;97283.95;114877;1195;30837;-84
2021/09/30 02:30:31;;;;;;;6.40;4.60;;;;;;;13.47;98.94;97283.81;115007;1201;35384;-84
2021/09/30 02:58:43;;;;;;;5.30;4.20;;;;;;;13.15;97.64;97293.38;115602;1198;26187;-84
2021/09/30 03:01:19;;;;;;;7.30;4.60;;;;;;;13.14;97.59;97302.23;115561;1196;30131;-84
2021/09/30 03:03:53;;;;;;;6.80;4.90;;;;;;;13.15;97.65;97309.73;115629;1197;27966;-84
2021/09/30 03:06:26;;;;;;;6.60;4.80;;;;;;;13.14;97.70;97312.33;115545;1198;28231;-82
2021/09/30 03:09:00;;;;;;;7.40;4.90;;;;;;;13.15;97.71;97308.55;115589;1198;26102;-83
2021/09/30 03:11:35;;;;;;;7.50;5.00;;;;;;;13.20;97.84;97314.71;115652;1197;25221;-82
2021/09/30 03:14:07;;;;;;;5.80;4.40;;;;;;;13.20;97.79;97318.27;115535;1196;39735;-83
2021/09/30 03:16:42;;;;;;;7.90;4.80;;;;;;;13.18;97.67;97320.63;115548;1198;27671;-84
2021/09/30 03:19:20;;;;;;;9.20;5.00;;;;;;;13.19;97.72;97320.63;115440;1190;27600;-83
2021/09/30 03:24:43;;;;;;;6.70;5.20;;;;;;;13.18;97.75;97317.59;115496;1198;28742;-83
2021/09/30 03:27:15;;;;;;;7.10;5.40;;;;;;;13.17;97.70;97318.44;115584;1196;28176;-82
2021/09/30 03:29:46;;;;;;;6.50;5.20;;;;;;;13.16;97.67;97318.55;115485;1198;27613;-83
2021/09/30 03:32:19;;;;;;;7.20;5.40;;;;;;;13.13;97.64;97321.66;115572;1198;25903;-84
2021/09/30 03:34:50;;;;;;;7.40;5.30;;;;;;;13.11;97.66;97325.14;115548;1197;25334;-83
2021/09/30 03:37:20;;;;;;;7.00;5.50;;;;;;;13.11;97.69;97320.24;115468;1197;34126;-84
2021/09/30 03:39:51;;;;;;;8.70;5.20;;;;;;;13.14;97.86;97324.91;115546;1184;32993;-83
2021/09/30 03:42:22;;;;;;;8.00;6.10;;;;;;;13.18;97.91;97324.13;115488;1197;28787;-83
2021/09/30 03:44:53;;;;;;;6.80;4.80;;;;;;;13.21;97.95;97326.46;115505;1197;30058;-84
2021/09/30 03:47:24;;;;;;;10.90;5.40;;;;;;;13.19;97.77;97328.88;115609;1197;25834;-83
2021/09/30 03:49:55;;;;;;;6.60;4.70;;;;;;;13.14;97.72;97329.38;115673;1197;31447;-82
2021/09/30 03:52:32;;;;;;;7.10;4.70;;;;;;;13.12;97.87;97328.80;115500;1184;32401;-82
2021/09/30 03:55:21;;;;;;;7.10;5.00;;;;;;;13.09;97.87;97334.52;115510;1197;38705;-83
2021/09/30 03:59:08;;;;;;;6.70;4.90;;;;;;;13.04;97.94;97336.19;115540;1175;26473;-84
2021/09/30 04:00:43;;;;;;;7.10;5.00;;;;;;;13.00;98.18;97342.29;115629;1198;28552;-83
2021/09/30 04:03:14;;;;;;;6.30;4.70;;;;;;;12.97;98.38;97346.56;115577;1197;27254;-83
2021/09/30 04:05:45;;;;;;;7.60;5.50;;;;;;;12.92;98.70;97341.26;115520;1197;28142;-84
2021/09/30 04:08:15;;;;;;;19.20;13.50;;;;;;;12.88;98.79;97342.14;115545;1198;27717;-85
2021/09/30 04:10:46;;;;;;;12.10;7.20;;;;;;;12.87;98.75;97341.14;115506;1198;40848;-85
2021/09/30 04:13:17;;;;;;;11.60;7.00;;;;;;;12.87;98.66;97339.92;115554;1198;26154;-83
2021/09/30 04:15:50;;;;;;;18.00;14.60;;;;;;;12.85;98.61;97345.73;115575;1197;30116;-84
2021/09/30 04:18:21;;;;;;;13.50;10.80;;;;;;;12.83;98.75;97349.46;115567;1190;31185;-83
2021/09/30 04:20:52;;;;;;;10.80;7.50;;;;;;;12.81;98.69;97353.04;115531;1190;25212;-83
2021/09/30 04:23:23;;;;;;;14.70;10.10;;;;;;;12.79;98.67;97354.14;115554;1197;28924;-83
2021/09/30 04:25:53;;;;;;;15.60;10.50;;;;;;;12.79;98.65;97354.57;115463;1198;28993;-83
2021/09/30 04:28:22;;;;;;;;;;;;;;;12.78;98.73;97358.09;115682;1197;24465;-83
2021/09/30 04:30:53;;;;;;;14.10;9.40;;;;;;;12.74;98.95;97365.31;115514;1197;27922;-83
2021/09/30 04:33:34;;;;;;;11.40;8.00;;;;;;;12.71;99.27;97367.45;115547;1196;25913;-83
2021/09/30 04:36:05;;;;;;;10.70;7.80;;;;;;;12.68;99.34;97366.56;115592;1196;26216;-83
2021/09/30 04:38:36;;;;;;;14.00;9.40;;;;;;;12.67;99.33;97368.54;115549;1197;29452;-83
2021/09/30 04:41:07;;;;;;;34.10;20.60;;;;;;;12.67;99.51;97374.23;115544;1191;33909;-83
2021/09/30 04:43:38;;;;;;;40.30;24.60;;;;;;;12.67;99.36;97382.80;115563;1196;27434;-83
2021/09/30 04:46:09;;;;;;;15.50;10.00;;;;;;;12.72;99.44;97388.42;115466;1197;30705;-83
2021/09/30 04:48:39;;;;;;;11.80;7.60;;;;;;;12.75;99.35;97389.52;115516;1197;34040;-83
2021/09/30 04:51:10;;;;;;;12.40;8.20;;;;;;;12.75;99.23;97391.10;115565;1197;25470;-85
2021/09/30 04:53:42;;;;;;;10.50;7.60;;;;;;;12.76;99.23;97394.56;115575;1197;26284;-85
2021/09/30 04:56:13;;;;;;;10.60;7.80;;;;;;;12.79;99.31;97392.36;115482;1196;26168;-83
2021/09/30 04:58:44;;;;;;;9.10;6.60;;;;;;;12.78;99.11;97394.45;115623;1193;27117;-84
2021/09/30 05:01:15;;;;;;;10.10;6.60;;;;;;;12.77;99.11;97400.67;115578;1196;28667;-83
2021/09/30 05:03:45;;;;;;;8.60;6.50;;;;;;;12.80;99.28;97398.96;115489;1198;41447;-83
2021/09/30 05:06:17;;;;;;;8.70;6.20;;;;;;;12.79;99.17;97398.59;115567;1197;30336;-84
2021/09/30 05:08:49;;;;;;;9.20;6.60;;;;;;;12.77;99.12;97402.48;115521;1197;26425;-84
2021/09/30 05:11:20;;;;;;;9.40;6.80;;;;;;;12.75;99.16;97407.39;115504;1197;30561;-83
2021/09/30 05:13:53;;;;;;;7.90;5.70;;;;;;;12.77;99.23;97410.20;115466;1198;45586;-83
2021/09/30 05:16:25;;;;;;;10.50;6.90;;;;;;;12.75;99.25;97408.45;115511;1190;27137;-82
2021/09/30 05:18:56;;;;;;;9.40;6.20;;;;;;;12.76;99.36;97414.89;115528;1198;26935;-84
2021/09/30 05:21:28;;;;;;;8.80;6.50;;;;;;;12.76;99.28;97413.98;115612;1196;24495;-84
2021/09/30 05:23:59;;;;;;;9.30;7.10;;;;;;;12.74;99.28;97416.34;115668;1197;27033;-83
2021/09/30 05:26:30;;;;;;;8.70;7.00;;;;;;;12.73;99.34;97420.12;115494;1197;28824;-84
2021/09/30 05:29:01;;;;;;;10.50;7.00;;;;;;;12.73;99.45;97420.91;115469;1197;27104;-84
2021/09/30 05:31:32;;;;;;;9.50;7.50;;;;;;;12.77;99.66;97425.20;115557;1197;30287;-83
2021/09/30 05:34:03;;;;;;;11.60;8.30;;;;;;;12.77;99.87;97427.55;115556;1197;27929;-84
2021/09/30 05:36:34;;;;;;;10.80;7.30;;;;;;;12.75;99.93;97427.83;115613;1197;25413;-83
2021/09/30 05:39:05;;;;;;;10.00;6.70;;;;;;;12.76;99.78;97434.04;115453;1193;29685;-83
2021/09/30 05:41:36;;;;;;;11.90;7.80;;;;;;;12.78;99.81;97433.88;115594;1197;29071;-83
2021/09/30 05:44:09;;;;;;;9.80;7.00;;;;;;;12.81;99.84;97436.05;115489;1197;27894;-83
2021/09/30 05:46:44;;;;;;;7.70;6.10;;;;;;;12.86;99.90;97436.85;115587;1196;28462;-84
2021/09/30 05:49:15;;;;;;;8.90;6.20;;;;;;;12.89;99.93;97439.75;115579;1197;24788;-83
2021/09/30 05:51:45;;;;;;;7.80;6.10;;;;;;;12.92;99.93;97438.52;115517;1197;26089;-84
2021/09/30 05:54:16;;;;;;;9.20;6.90;;;;;;;12.95;99.71;97439.09;115560;1197;27966;-84
2021/09/30 05:56:47;;;;;;;10.20;6.00;;;;;;;12.96;99.59;97446.55;115581;1197;28507;-84
2021/09/30 05:59:21;;;;;;;8.20;5.70;;;;;;;12.97;99.51;97448.35;115534;1197;30990;-84
2021/09/30 06:10:33;;;;;;;11.80;8.50;;;;;;;13.03;99.91;97469.66;115458;1198;24711;-83
2021/09/30 06:13:08;;;;;;;14.60;10.40;;;;;;;13.04;99.95;97475.62;115498;1193;28973;-83
2021/09/30 06:15:41;;;;;;;22.90;16.50;;;;;;;13.02;99.72;97476.05;115532;1197;25539;-83
2021/09/30 06:18:12;;;;;;;22.60;16.40;;;;;;;13.01;99.56;97476.21;115511;1197;27389;-83
2021/09/30 06:20:43;;;;;;;26.80;18.90;;;;;;;13.01;99.61;97475.59;115493;1198;34342;-84
2021/09/30 06:23:14;;;;;;;28.40;19.50;;;;;;;12.99;99.64;97478.73;115555;1196;35562;-83
2021/09/30 06:25:45;;;;;;;25.40;17.80;;;;;;;12.99;99.60;97484.00;115600;1190;27383;-83
2021/09/30 06:28:16;;;;;;;26.10;19.30;;;;;;;12.99;99.58;97485.23;115577;1197;31314;-84
2021/09/30 06:30:47;;;;;;;26.00;18.80;;;;;;;12.99;99.45;97485.23;115527;1193;32490;-83
2021/09/30 06:33:18;;;;;;;24.00;17.50;;;;;;;12.98;99.65;97489.28;115447;1197;28520;-83
2021/09/30 06:35:49;;;;;;;22.60;16.30;;;;;;;12.97;99.51;97492.05;115506;1193;27988;-84
2021/09/30 06:38:19;;;;;;;25.30;17.80;;;;;;;12.97;99.41;97489.55;115593;1196;26204;-84
2021/09/30 06:40:51;;;;;;;25.10;18.00;;;;;;;12.97;99.24;97492.58;115539;1190;28923;-84
2021/09/30 06:43:23;;;;;;;25.20;17.30;;;;;;;13.00;99.30;97497.73;115493;1198;27396;-84
2021/09/30 06:45:54;;;;;;;26.50;18.80;;;;;;;13.03;99.30;97496.27;115568;1190;28524;-84
2021/09/30 06:48:27;;;;;;;29.60;21.20;;;;;;;13.03;99.22;97493.83;115643;1197;25082;-84
2021/09/30 06:50:58;;;;;;;24.20;18.80;;;;;;;13.03;99.17;97491.42;115584;1197;27476;-84
2021/09/30 06:53:29;;;;;;;28.90;19.70;;;;;;;13.10;99.23;97496.95;115542;1197;27703;-84
2021/09/30 06:56:03;;;;;;;33.90;23.30;;;;;;;13.15;99.45;97497.77;115544;1196;63445;-83
2021/09/30 06:58:40;;;;;;;30.90;23.70;;;;;;;13.16;99.19;97503.95;115539;1197;25455;-84
2021/09/30 07:01:13;;;;;;;31.20;22.30;;;;;;;13.18;99.19;97516.95;115468;1197;27573;-84
2021/09/30 07:03:45;;;;;;;27.50;20.60;;;;;;;13.16;99.02;97515.67;115542;1197;29058;-84
2021/09/30 07:06:16;;;;;;;28.60;21.00;;;;;;;13.10;98.45;97522.98;115616;1190;28853;-84
2021/09/30 07:08:47;;;;;;;30.90;20.80;;;;;;;13.05;98.07;97523.21;115557;1197;26371;-84
2021/09/30 07:11:17;;;;;;;28.50;22.00;;;;;;;13.00;97.79;97527.98;115481;1197;25097;-84
2021/09/30 07:13:48;;;;;;;29.80;22.00;;;;;;;12.91;97.56;97526.34;115531;1197;29866;-84
2021/09/30 07:16:19;;;;;;;30.30;20.70;;;;;;;12.88;97.91;97527.95;115535;1198;25694;-84
2021/09/30 07:18:50;;;;;;;26.40;19.80;;;;;;;12.92;98.06;97531.92;115600;1197;28320;-84
2021/09/30 07:21:21;;;;;;;27.70;18.70;;;;;;;12.95;97.79;97531.38;115447;1197;28142;-84
2021/09/30 07:23:52;;;;;;;29.50;20.90;;;;;;;12.95;97.49;97535.06;115540;1197;27177;-84
2021/09/30 07:26:23;;;;;;;26.60;19.70;;;;;;;12.93;97.30;97539.05;115468;1197;34333;-84
2021/09/30 07:28:53;;;;;;;26.20;20.80;;;;;;;12.95;97.47;97541.04;115565;1197;34371;-83
2021/09/30 07:31:24;;;;;;;28.40;21.50;;;;;;;12.97;97.42;97545.55;115537;1191;29224;-84
2021/09/30 07:33:55;;;;;;;28.70;21.90;;;;;;;12.93;97.18;97548.52;115437;1199;28022;-83
2021/09/30 07:36:26;;;;;;;29.90;20.90;;;;;;;12.84;96.77;97546.42;115546;1197;28429;-83
2021/09/30 07:38:57;;;;;;;26.70;20.10;;;;;;;12.68;96.16;97548.21;115603;1197;27236;-82
2021/09/30 07:41:28;;;;;;;26.90;19.00;;;;;;;12.50;95.78;97554.65;115592;1197;30517;-84
2021/09/30 07:43:59;;;;;;;26.60;19.10;;;;;;;12.35;95.70;97558.38;115598;1197;25443;-84
2021/09/30 07:46:29;;;;;;;30.70;20.50;;;;;;;12.24;95.63;97567.00;115565;1191;37650;-84
2021/09/30 07:49:00;;;;;;;26.60;18.90;;;;;;;12.20;95.86;97567.52;115534;1197;25627;-83
2021/09/30 07:51:31;;;;;;;31.30;21.90;;;;;;;12.22;96.15;97571.56;115474;1184;32604;-83
2021/09/30 07:54:02;;;;;;;33.20;22.90;;;;;;;12.26;96.01;97569.20;115494;1196;55050;-84
2021/09/30 07:56:34;;;;;;;32.00;22.30;;;;;;;12.21;95.73;97572.15;115538;1197;26046;-84
2021/09/30 07:59:05;;;;;;;33.50;24.60;;;;;;;12.18;95.81;97571.14;115560;1197;26402;-83
2021/09/30 08:01:35;;;;;;;29.90;21.70;;;;;;;12.17;95.70;97576.98;115566;1197;27473;-84
2021/09/30 08:04:07;;;;;;;31.90;22.70;;;;;;;12.19;95.84;97577.89;115517;1197;59405;-83
2021/09/30 08:06:39;;;;;;;32.30;22.10;;;;;;;12.18;95.67;97576.77;115416;1197;56619;-84
2021/09/30 08:09:11;;;;;;;32.80;22.90;;;;;;;12.18;95.70;97579.75;115435;1198;28341;-84
2021/09/30 08:11:42;;;;;;;32.50;23.50;;;;;;;12.15;95.49;97583.27;115583;1197;29112;-84
2021/09/30 08:14:13;;;;;;;30.00;22.10;;;;;;;12.11;95.32;97587.30;115485;1197;29520;-84
2021/09/30 08:16:43;;;;;;;26.10;20.00;;;;;;;12.11;95.38;97591.34;115465;1197;31572;-84
2021/09/30 08:19:15;;;;;;;30.10;22.40;;;;;;;12.11;95.33;97594.91;115555;1190;27878;-84
2021/09/30 08:21:46;;;;;;;28.50;21.90;;;;;;;12.07;95.28;97595.79;115594;1197;29056;-83
2021/09/30 08:24:18;;;;;;;27.70;20.20;;;;;;;11.99;95.36;97607.95;115612;1190;29224;-84
2021/09/30 08:26:50;;;;;;;27.00;18.00;;;;;;;11.94;95.32;97611.38;115649;1197;28081;-84
2021/09/30 08:29:22;;;;;;;24.60;18.00;;;;;;;11.89;95.31;97618.17;115395;1194;28798;-84
2021/09/30 08:31:53;;;;;;;24.50;16.90;;;;;;;11.87;95.41;97618.02;115616;1197;26032;-83
2021/09/30 08:34:23;;;;;;;22.90;16.70;;;;;;;11.86;95.32;97617.75;115645;1197;28202;-84
2021/09/30 08:36:54;;;;;;;20.20;15.60;;;;;;;11.82;94.86;97618.37;115414;1198;30613;-82
2021/09/30 08:39:25;;;;;;;20.20;14.70;;;;;;;11.73;94.79;97623.09;115613;1196;26331;-83
2021/09/30 08:41:56;;;;;;;19.00;13.30;;;;;;;11.68;94.88;97631.30;115574;1197;34580;-82
2021/09/30 08:44:27;;;;;;;16.50;11.80;;;;;;;11.70;94.83;97630.21;115529;1197;26997;-83
2021/09/30 08:46:58;;;;;;;17.60;12.20;;;;;;;11.76;94.76;97632.88;115512;1198;43526;-83
2021/09/30 08:49:29;;;;;;;18.70;12.50;;;;;;;11.81;94.52;97635.73;115630;1196;27198;-83
2021/09/30 08:52:00;;;;;;;16.50;12.10;;;;;;;11.76;93.61;97637.98;115479;1192;28102;-82
2021/09/30 08:54:31;;;;;;;18.00;11.60;;;;;;;11.75;93.95;97642.23;115505;1197;33816;-83
2021/09/30 08:57:03;;;;;;;20.70;13.80;;;;;;;11.80;94.11;97648.33;115549;1197;26966;-82
2021/09/30 08:59:34;;;;;;;15.50;11.80;;;;;;;11.81;93.92;97651.73;115490;1197;29208;-82
2021/09/30 09:02:11;;;;;;;14.70;9.90;;;;;;;11.84;93.88;97658.39;115659;1196;24882;-83
2021/09/30 09:04:53;;;;;;;17.30;11.30;;;;;;;11.84;93.50;97658.66;115528;1197;26738;-84
2021/09/30 09:07:28;;;;;;;14.10;9.70;;;;;;;11.84;93.56;97670.20;115529;1197;31881;-83
2021/09/30 09:10:01;;;;;;;14.70;9.40;;;;;;;11.84;93.22;97676.15;115557;1197;28069;-83
2021/09/30 09:12:33;;;;;;;12.10;9.20;;;;;;;11.90;93.33;97679.35;115521;1197;27289;-82
2021/09/30 09:15:06;;;;;;;15.00;8.80;;;;;;;11.83;92.74;97686.45;115445;1198;28474;-83
2021/09/30 09:17:40;;;;;;;11.50;8.10;;;;;;;11.74;92.33;97684.83;115473;1197;28416;-83
2021/09/30 09:20:12;;;;;;;13.50;8.60;;;;;;;11.73;92.03;97691.95;115527;1197;28148;-83
2021/09/30 09:22:43;;;;;;;11.30;7.50;;;;;;;11.75;91.85;97692.11;115582;1190;31835;-83
2021/09/30 09:25:19;;;;;;;11.50;7.40;;;;;;;11.77;91.31;97696.58;115519;1197;43346;-83
2021/09/30 09:27:54;;;;;;;11.50;7.50;;;;;;;11.71;90.39;97698.79;115563;1197;31764;-83
2021/09/30 09:30:43;;;;;;;11.10;7.40;;;;;;;11.70;90.16;97694.80;115601;1197;25499;-83
2021/09/30 09:33:20;;;;;;;14.40;7.40;;;;;;;11.60;89.42;97700.70;115549;1197;27603;-83
2021/09/30 09:36:09;;;;;;;12.70;8.10;;;;;;;11.58;89.88;97699.63;115443;1184;33006;-82
2021/09/30 09:38:53;;;;;;;11.50;7.00;;;;;;;11.68;90.60;97702.02;115495;1197;26235;-82
2021/09/30 09:41:30;;;;;;;12.60;7.30;;;;;;;11.82;90.84;97706.15;115482;1191;28742;-83
2021/09/30 09:44:02;;;;;;;11.70;7.70;;;;;;;11.90;90.52;97707.19;115438;1198;26748;-83
2021/09/30 09:46:35;;;;;;;11.50;7.50;;;;;;;11.89;90.02;97709.59;115459;1197;29797;-82
2021/09/30 09:49:08;;;;;;;11.60;7.90;;;;;;;11.83;89.37;97710.25;115432;1198;28856;-82
2021/09/30 09:51:43;;;;;;;11.60;7.80;;;;;;;11.80;89.16;97712.88;115491;1196;27084;-83
2021/09/30 09:54:17;;;;;;;11.60;8.10;;;;;;;11.76;89.02;97714.91;115530;1197;28862;-83
2021/09/30 09:56:50;;;;;;;10.50;7.40;;;;;;;11.78;89.42;97715.52;115566;1197;30596;-83
2021/09/30 09:59:32;;;;;;;11.80;7.50;;;;;;;11.84;89.47;97721.47;115473;1196;53805;-84
2021/09/30 10:02:03;;;;;;;11.90;7.70;;;;;;;11.82;88.97;97724.85;115439;1197;31285;-82
2021/09/30 10:04:34;;;;;;;12.60;7.90;;;;;;;11.77;88.75;97728.63;115499;1184;30336;-83
2021/09/30 10:07:07;;;;;;;13.90;7.60;;;;;;;11.72;88.79;97730.57;115474;1197;31681;-82
2021/09/30 10:09:38;;;;;;;12.80;8.20;;;;;;;11.72;89.10;97736.30;115493;1197;27872;-83
2021/09/30 10:12:11;;;;;;;12.40;7.60;;;;;;;11.75;89.35;97736.95;115495;1197;30050;-83
2021/09/30 10:14:43;;;;;;;12.30;7.60;;;;;;;11.80;89.73;97741.09;115538;1197;26977;-83
2021/09/30 10:17:14;;;;;;;11.60;7.20;;;;;;;11.83;89.59;97742.73;115447;1197;30801;-83
2021/09/30 10:19:47;;;;;;;11.50;6.80;;;;;;;11.80;89.41;97747.58;115495;1190;37977;-83
2021/09/30 10:22:17;;;;;;;10.40;6.10;;;;;;;11.81;89.38;97752.95;115441;1197;25785;-83
2021/09/30 10:24:48;;;;;;;11.10;6.60;;;;;;;11.83;88.99;97756.02;115550;1197;26282;-83
2021/09/30 10:27:20;;;;;;;15.00;8.30;;;;;;;11.74;88.73;97760.86;115508;1197;66480;-82
2021/09/30 10:29:53;;;;;;;12.20;6.90;;;;;;;11.71;89.06;97757.71;115622;1196;36135;-82
2021/09/30 10:32:29;;;;;;;11.80;6.60;;;;;;;11.71;89.05;97755.75;115582;1198;32646;-83
2021/09/30 10:35:01;;;;;;;11.40;7.10;;;;;;;11.73;88.92;97753.90;115590;1197;29833;-83
2021/09/30 10:37:33;;;;;;;12.50;8.00;;;;;;;11.72;89.19;97752.99;115510;1197;27974;-82
2021/09/30 10:40:20;;;;;;;13.80;9.20;;;;;;;11.78;89.67;97751.64;115509;1197;73952;-84
2021/09/30 10:42:56;;;;;;;14.40;9.70;;;;;;;11.87;89.93;97755.81;115425;1198;38561;-83
2021/09/30 10:45:37;;;;;;;14.40;9.40;;;;;;;11.88;89.77;97757.63;115570;1197;28746;-84
2021/09/30 10:48:30;;;;;;;15.00;9.50;;;;;;;11.86;89.79;97749.01;115629;1191;29883;-83
2021/09/30 10:51:08;;;;;;;14.60;9.30;;;;;;;11.86;89.72;97748.05;115471;1197;29937;-83
2021/09/30 10:54:02;;;;;;;13.50;7.80;;;;;;;11.83;89.92;97750.44;115516;1197;25587;-83
2021/09/30 10:56:41;;;;;;;13.70;8.50;;;;;;;11.85;89.87;97751.02;115531;1197;28111;-83
2021/09/30 10:59:42;;;;;;;12.50;8.50;;;;;;;11.84;89.82;97750.64;115473;1197;30974;-83
2021/09/30 11:02:13;;;;;;;11.70;8.30;;;;;;;11.80;89.69;97748.84;115507;1197;33358;-84
2021/09/30 11:05:09;;;;;;;12.00;7.90;;;;;;;11.69;89.34;97747.34;115472;1197;28500;-83
2021/09/30 11:07:41;;;;;;;11.70;7.50;;;;;;;11.61;89.63;97747.51;115441;1197;72410;-82
2021/09/30 11:10:22;;;;;;;12.10;7.50;;;;;;;11.57;89.97;97747.59;115446;1182;29564;-83
2021/09/30 11:13:09;;;;;;;;;;;;;;;11.55;90.21;97741.00;115517;1197;30840;-83
2021/09/30 11:16:07;;;;;;;11.10;6.20;;;;;;;11.55;89.93;97739.08;115479;1197;39197;-83
2021/09/30 11:18:49;;;;;;;12.70;6.70;;;;;;;11.53;89.36;97739.58;115443;1197;28567;-84
2021/09/30 11:21:47;;;;;;;8.00;5.90;;;;;;;11.52;89.85;97739.15;115433;1197;29808;-83
2021/09/30 11:24:27;;;;;;;9.70;5.50;;;;;;;11.50;89.29;97742.54;115455;1197;31177;-83
2021/09/30 11:27:13;;;;;;;13.20;5.80;;;;;;;11.45;88.86;97746.98;115521;1197;25385;-83
2021/09/30 11:29:44;;;;;;;7.30;4.70;;;;;;;11.37;88.66;97749.30;115469;1197;28765;-83
2021/09/30 11:32:29;;;;;;;8.90;5.00;;;;;;;11.30;88.12;97749.48;115430;1195;26777;-82
2021/09/30 11:35:03;;;;;;;9.80;5.80;;;;;;;11.23;87.66;97747.92;115547;1191;27121;-84
2021/09/30 11:37:43;;;;;;;10.30;7.00;;;;;;;11.19;87.94;97742.80;115494;1197;38115;-82
2021/09/30 11:40:19;;;;;;;11.00;7.10;;;;;;;11.17;88.43;97745.77;115506;1197;30365;-83
2021/09/30 11:42:56;;;;;;;8.40;6.10;;;;;;;11.15;88.65;97743.73;115590;1197;29493;-82
2021/09/30 11:45:30;;;;;;;9.30;4.60;;;;;;;11.13;89.08;97742.70;115558;1197;25907;-82
2021/09/30 11:48:09;;;;;;;10.40;6.70;;;;;;;11.08;89.01;97744.19;115466;1197;42135;-82
2021/09/30 11:50:40;;;;;;;9.60;5.30;;;;;;;11.03;89.08;97744.27;115507;1196;30165;-84
2021/09/30 11:53:12;;;;;;;11.70;5.50;;;;;;;10.97;88.88;97748.89;115484;1197;30138;-83
2021/09/30 11:55:45;;;;;;;8.50;5.20;;;;;;;10.93;89.09;97745.50;115564;1197;25827;-83
2021/09/30 11:58:16;;;;;;;11.60;6.30;;;;;;;10.89;88.16;97750.41;115478;1197;29106;-82
2021/09/30 12:00:49;;;;;;;9.20;5.70;;;;;;;10.83;88.25;97751.36;115477;1198;26030;-83
2021/09/30 12:03:20;;;;;;;9.10;6.10;;;;;;;10.78;88.33;97750.98;115507;1197;27369;-83
2021/09/30 12:05:56;;;;;;;12.80;6.40;;;;;;;10.73;88.50;97751.54;115504;1197;25339;-82
2021/09/30 12:08:27;;;;;;;10.40;6.10;;;;;;;10.68;88.75;97748.78;115518;1190;26812;-82
2021/09/30 12:11:04;;;;;;;10.80;7.20;;;;;;;10.65;88.63;97747.90;115606;1197;30279;-83
2021/09/30 12:13:35;;;;;;;12.70;6.50;;;;;;;10.63;88.74;97752.92;115494;1197;27798;-82
2021/09/30 12:16:08;;;;;;;13.90;6.50;;;;;;;10.60;88.71;97754.97;115511;1197;27066;-84
2021/09/30 12:18:38;;;;;;;10.00;5.80;;;;;;;10.58;88.31;97757.34;115482;1197;27688;-82
2021/09/30 12:21:09;;;;;;;11.00;5.70;;;;;;;10.59;88.26;97757.82;115465;1198;26678;-83
2021/09/30 12:23:40;;;;;;;10.60;5.30;;;;;;;10.66;88.51;97758.41;115530;1196;27966;-83
2021/09/30 12:26:11;;;;;;;7.40;4.60;;;;;;;10.74;88.57;97754.41;115522;1197;26308;-83
2021/09/30 12:28:42;;;;;;;10.40;6.50;;;;;;;10.82;89.03;97759.20;115464;1191;26340;-83
2021/09/30 12:31:17;;;;;;;8.40;4.80;;;;;;;10.84;89.15;97760.08;115472;1197;28691;-83
2021/09/30 12:33:47;;;;;;;9.20;5.10;;;;;;;10.80;88.68;97758.02;115449;1198;27804;-83
2021/09/30 12:36:19;;;;;;;9.90;5.70;;;;;;;10.78;88.50;97760.66;115500;1197;31106;-83
2021/09/30 12:39:01;;;;;;;10.90;5.30;;;;;;;10.77;88.80;97757.14;115434;1193;26630;-83
2021/09/30 12:41:34;;;;;;;9.90;6.10;;;;;;;10.75;88.93;97756.01;115549;1197;25808;-82
2021/09/30 12:44:14;;;;;;;10.60;5.60;;;;;;;10.71;88.47;97761.50;115460;1197;26760;-83
2021/09/30 12:46:47;;;;;;;9.60;5.20;;;;;;;10.75;88.53;97760.41;115456;1198;28128;-84
2021/09/30 12:49:19;;;;;;;9.00;5.20;;;;;;;10.79;88.47;97762.52;115500;1197;25984;-83
2021/09/30 12:51:50;;;;;;;7.90;4.90;;;;;;;10.85;88.76;97766.34;115465;1197;26563;-82
2021/09/30 12:54:29;;;;;;;9.10;5.20;;;;;;;10.83;88.43;97769.77;115575;1197;29303;-83
2021/09/30 12:57:13;;;;;;;11.30;5.60;;;;;;;10.79;88.42;97767.34;115626;1197;26598;-83
2021/09/30 13:00:11;;;;;;;9.80;5.90;;;;;;;10.77;88.85;97768.55;115509;1198;25867;-83
2021/09/30 13:02:43;;;;;;;9.50;5.70;;;;;;;10.75;89.27;97764.66;115445;1197;30309;-84
2021/09/30 13:05:14;;;;;;;9.30;5.60;;;;;;;10.72;89.00;97762.93;115452;1197;29914;-83
2021/09/30 13:07:48;;;;;;;12.10;6.60;;;;;;;10.66;88.37;97763.23;115442;1197;26567;-82
2021/09/30 13:10:21;;;;;;;9.50;5.30;;;;;;;10.61;88.68;97761.82;115398;1197;80146;-83
2021/09/30 13:13:04;;;;;;;9.90;5.60;;;;;;;10.59;88.83;97765.09;115468;1197;26419;-82
2021/09/30 13:15:38;;;;;;;9.60;5.60;;;;;;;10.63;89.46;97766.87;115527;1197;29313;-83
2021/09/30 13:18:11;;;;;;;8.50;5.30;;;;;;;10.69;89.65;97768.27;115429;1194;48785;-83
2021/09/30 13:20:44;;;;;;;8.10;5.10;;;;;;;10.76;89.85;97766.63;115493;1192;30298;-82
2021/09/30 13:23:15;;;;;;;9.70;5.60;;;;;;;10.82;89.91;97767.31;115519;1197;31287;-83
2021/09/30 13:25:46;;;;;;;9.30;5.10;;;;;;;10.88;89.88;97760.86;115523;1197;28902;-83
2021/09/30 13:28:17;;;;;;;9.40;4.90;;;;;;;10.90;89.50;97758.01;115453;1198;26401;-83
2021/09/30 13:30:48;;;;;;;6.30;4.40;;;;;;;10.87;89.08;97761.06;115462;1197;27653;-83
2021/09/30 13:33:19;;;;;;;7.40;4.60;;;;;;;10.86;89.04;97759.89;115496;1191;28894;-84
2021/09/30 13:35:50;;;;;;;7.10;4.60;;;;;;;10.91;89.66;97763.53;115495;1198;25418;-83
2021/09/30 13:38:23;;;;;;;10.00;5.10;;;;;;;10.96;89.99;97759.91;115476;1185;29398;-84
2021/09/30 13:40:55;;;;;;;6.90;4.70;;;;;;;11.00;90.01;97756.30;115459;1197;34260;-83
2021/09/30 13:43:25;;;;;;;8.50;4.70;;;;;;;11.02;89.95;97756.05;115581;1197;28392;-84
2021/09/30 13:45:57;;;;;;;8.90;4.90;;;;;;;11.03;89.89;97757.06;115517;1190;33674;-83
2021/09/30 13:48:30;;;;;;;7.50;4.50;;;;;;;11.03;89.59;97754.67;115529;1197;26557;-83
2021/09/30 13:51:02;;;;;;;6.50;4.20;;;;;;;11.03;89.68;97754.10;115445;1197;25993;-83
2021/09/30 13:53:33;;;;;;;7.40;4.20;;;;;;;11.06;89.63;97745.24;115448;1197;51183;-83
2021/09/30 13:56:04;;;;;;;7.80;3.60;;;;;;;11.09;89.06;97748.34;115510;1197;27667;-83
2021/09/30 13:58:35;;;;;;;6.00;3.80;;;;;;;11.10;88.86;97747.81;115472;1197;36338;-82
2021/09/30 14:01:06;;;;;;;7.20;3.50;;;;;;;11.13;88.62;97744.47;115501;1197;28116;-83
2021/09/30 14:03:37;;;;;;;5.90;3.50;;;;;;;11.15;88.53;97743.26;115508;1197;26555;-84
2021/09/30 14:06:08;;;;;;;8.50;4.20;;;;;;;11.17;88.53;97741.30;115564;1197;28790;-83
2021/09/30 14:08:41;;;;;;;6.90;3.80;;;;;;;11.17;88.73;97739.02;115624;1197;31155;-83
2021/09/30 14:11:13;;;;;;;6.80;3.90;;;;;;;11.16;88.63;97737.59;115462;1197;27892;-83